sensor_id;sensor_type;location;lat;lon;timestamp;temperature;humidity
10129;DHT22;5104;50.720;7.044;2023-12-22T00:00:40;6.20;99.90
10129;DHT22;5104;50.720;7.044;2023-12-22T00:03:07;6.20;99.90
10129;DHT22;5104;50.720;7.044;2023-12-22T00:05:34;6.20;99.90
10129;DHT22;5104;50.720;7.044;2023-12-22T00:08:03;6.20;99.90
10129;DHT22;5104;50.720;7.044;2023-12-22T00:10:30;6.20;99.90
10129;DHT22;5104;50.720;7.044;2023-12-22T00:12:57;6.30;99.90
10129;DHT22;5104;50.720;7.044;2023-12-22T00:15:24;6.40;99.90
10129;DHT22;5104;50.720;7.044;2023-12-22T00:17:51;6.40;99.90
10129;DHT22;5104;50.720;7.044;2023-12-22T00:20:18;6.50;99.90
10129;DHT22;5104;50.720;7.044;2023-12-22T00:22:45;5.90;99.90
10129;DHT22;5104;50.720;7.044;2023-12-22T00:25:13;5.30;99.90
10129;DHT22;5104;50.720;7.044;2023-12-22T00:27:40;5.00;99.90
10129;DHT22;5104;50.720;7.044;2023-12-22T00:30:08;4.90;99.90
10129;DHT22;5104;50.720;7.044;2023-12-22T00:32:36;4.80;99.90
10129;DHT22;5104;50.720;7.044;2023-12-22T00:35:03;4.70;99.90
10129;DHT22;5104;50.720;7.044;2023-12-22T00:37:31;4.70;99.90
10129;DHT22;5104;50.720;7.044;2023-12-22T00:39:58;4.90;99.90
10129;DHT22;5104;50.720;7.044;2023-12-22T00:42:26;4.90;99.90
10129;DHT22;5104;50.720;7.044;2023-12-22T00:44:53;4.90;99.90
10129;DHT22;5104;50.720;7.044;2023-12-22T00:47:20;5.00;99.90
10129;DHT22;5104;50.720;7.044;2023-12-22T00:49:47;5.10;99.90
10129;DHT22;5104;50.720;7.044;2023-12-22T00:52:14;5.10;99.90
10129;DHT22;5104;50.720;7.044;2023-12-22T00:54:41;5.10;99.90
10129;DHT22;5104;50.720;7.044;2023-12-22T00:57:08;5.10;99.90
10129;DHT22;5104;50.720;7.044;2023-12-22T00:59:36;5.10;99.90
10129;DHT22;5104;50.720;7.044;2023-12-22T01:02:04;5.20;99.90
10129;DHT22;5104;50.720;7.044;2023-12-22T01:04:30;5.20;99.90
10129;DHT22;5104;50.720;7.044;2023-12-22T01:06:57;5.20;99.90
10129;DHT22;5104;50.720;7.044;2023-12-22T01:09:24;5.20;99.90
10129;DHT22;5104;50.720;7.044;2023-12-22T01:11:51;5.20;99.90
10129;DHT22;5104;50.720;7.044;2023-12-22T01:14:18;5.30;99.90
10129;DHT22;5104;50.720;7.044;2023-12-22T01:16:46;5.30;99.90
10129;DHT22;5104;50.720;7.044;2023-12-22T01:19:13;5.30;99.90
10129;DHT22;5104;50.720;7.044;2023-12-22T01:21:40;5.30;99.90
10129;DHT22;5104;50.720;7.044;2023-12-22T01:24:07;5.30;99.90
10129;DHT22;5104;50.720;7.044;2023-12-22T01:26:34;5.30;99.90
10129;DHT22;5104;50.720;7.044;2023-12-22T01:29:01;5.30;99.90
10129;DHT22;5104;50.720;7.044;2023-12-22T01:31:28;5.30;99.90
10129;DHT22;5104;50.720;7.044;2023-12-22T01:33:56;5.30;99.90
10129;DHT22;5104;50.720;7.044;2023-12-22T01:36:23;5.40;99.90
10129;DHT22;5104;50.720;7.044;2023-12-22T01:38:50;5.40;99.90
10129;DHT22;5104;50.720;7.044;2023-12-22T01:41:18;5.40;99.90
10129;DHT22;5104;50.720;7.044;2023-12-22T01:43:45;5.40;99.90
10129;DHT22;5104;50.720;7.044;2023-12-22T01:46:12;5.50;99.90
10129;DHT22;5104;50.720;7.044;2023-12-22T01:48:40;5.50;99.90
10129;DHT22;5104;50.720;7.044;2023-12-22T01:51:08;5.50;99.90
10129;DHT22;5104;50.720;7.044;2023-12-22T01:53:35;5.50;99.90
10129;DHT22;5104;50.720;7.044;2023-12-22T01:56:03;5.50;99.90
10129;DHT22;5104;50.720;7.044;2023-12-22T01:58:31;5.50;99.90
10129;DHT22;5104;50.720;7.044;2023-12-22T02:00:59;5.50;99.90
10129;DHT22;5104;50.720;7.044;2023-12-22T02:03:27;5.60;99.90
10129;DHT22;5104;50.720;7.044;2023-12-22T02:05:54;5.50;99.90
10129;DHT22;5104;50.720;7.044;2023-12-22T02:08:24;5.60;99.90
10129;DHT22;5104;50.720;7.044;2023-12-22T02:10:52;5.60;99.90
10129;DHT22;5104;50.720;7.044;2023-12-22T02:13:19;5.60;99.90
10129;DHT22;5104;50.720;7.044;2023-12-22T02:15:47;5.60;99.90
10129;DHT22;5104;50.720;7.044;2023-12-22T02:18:19;5.60;99.90
10129;DHT22;5104;50.720;7.044;2023-12-22T02:20:48;5.60;99.90
10129;DHT22;5104;50.720;7.044;2023-12-22T02:23:17;5.70;99.90
10129;DHT22;5104;50.720;7.044;2023-12-22T02:25:44;5.70;99.90
10129;DHT22;5104;50.720;7.044;2023-12-22T02:28:13;5.70;99.90
10129;DHT22;5104;50.720;7.044;2023-12-22T02:30:49;5.70;99.90
10129;DHT22;5104;50.720;7.044;2023-12-22T02:33:20;5.70;99.90
10129;DHT22;5104;50.720;7.044;2023-12-22T02:35:50;5.70;99.90
10129;DHT22;5104;50.720;7.044;2023-12-22T02:38:20;5.80;99.90
10129;DHT22;5104;50.720;7.044;2023-12-22T02:40:47;5.80;99.90
10129;DHT22;5104;50.720;7.044;2023-12-22T02:43:14;5.80;99.90
10129;DHT22;5104;50.720;7.044;2023-12-22T02:45:41;5.80;99.90
10129;DHT22;5104;50.720;7.044;2023-12-22T02:48:08;5.80;99.90
10129;DHT22;5104;50.720;7.044;2023-12-22T02:50:35;5.80;99.90
10129;DHT22;5104;50.720;7.044;2023-12-22T02:53:02;5.90;99.90
10129;DHT22;5104;50.720;7.044;2023-12-22T02:55:30;6.00;99.90
10129;DHT22;5104;50.720;7.044;2023-12-22T02:57:57;6.10;99.90
10129;DHT22;5104;50.720;7.044;2023-12-22T03:00:24;6.20;99.90
10129;DHT22;5104;50.720;7.044;2023-12-22T03:02:51;6.30;99.90
10129;DHT22;5104;50.720;7.044;2023-12-22T03:05:18;6.30;99.90
10129;DHT22;5104;50.720;7.044;2023-12-22T03:07:45;6.40;99.90
10129;DHT22;5104;50.720;7.044;2023-12-22T03:10:12;6.50;99.90
10129;DHT22;5104;50.720;7.044;2023-12-22T03:12:41;6.60;99.90
10129;DHT22;5104;50.720;7.044;2023-12-22T03:15:09;6.60;99.90
10129;DHT22;5104;50.720;7.044;2023-12-22T03:17:36;6.60;99.90
10129;DHT22;5104;50.720;7.044;2023-12-22T03:20:03;6.70;99.90
10129;DHT22;5104;50.720;7.044;2023-12-22T03:22:30;6.70;99.90
10129;DHT22;5104;50.720;7.044;2023-12-22T03:24:57;6.70;99.90
10129;DHT22;5104;50.720;7.044;2023-12-22T03:27:24;6.70;99.90
10129;DHT22;5104;50.720;7.044;2023-12-22T03:29:52;6.80;99.90
10129;DHT22;5104;50.720;7.044;2023-12-22T03:32:20;6.90;99.90
10129;DHT22;5104;50.720;7.044;2023-12-22T03:34:47;6.90;99.90
10129;DHT22;5104;50.720;7.044;2023-12-22T03:37:14;7.00;99.90
10129;DHT22;5104;50.720;7.044;2023-12-22T03:39:41;7.00;99.90
10129;DHT22;5104;50.720;7.044;2023-12-22T03:42:08;7.10;99.90
10129;DHT22;5104;50.720;7.044;2023-12-22T03:44:35;7.10;99.90
10129;DHT22;5104;50.720;7.044;2023-12-22T03:47:04;7.10;99.90
10129;DHT22;5104;50.720;7.044;2023-12-22T03:49:31;7.10;99.90
10129;DHT22;5104;50.720;7.044;2023-12-22T03:51:58;7.10;99.90
10129;DHT22;5104;50.720;7.044;2023-12-22T03:54:25;7.10;99.90
10129;DHT22;5104;50.720;7.044;2023-12-22T03:56:52;7.10;99.90
10129;DHT22;5104;50.720;7.044;2023-12-22T03:59:19;7.10;99.90
10129;DHT22;5104;50.720;7.044;2023-12-22T04:01:50;7.10;99.90
10129;DHT22;5104;50.720;7.044;2023-12-22T04:04:20;7.10;99.90
10129;DHT22;5104;50.720;7.044;2023-12-22T04:06:48;7.10;99.90
10129;DHT22;5104;50.720;7.044;2023-12-22T04:09:15;7.00;99.90
10129;DHT22;5104;50.720;7.044;2023-12-22T04:11:42;6.80;99.90
10129;DHT22;5104;50.720;7.044;2023-12-22T04:14:09;6.70;99.90
10129;DHT22;5104;50.720;7.044;2023-12-22T04:16:36;6.70;99.90
10129;DHT22;5104;50.720;7.044;2023-12-22T04:19:03;6.60;99.90
10129;DHT22;5104;50.720;7.044;2023-12-22T04:21:32;6.60;99.90
10129;DHT22;5104;50.720;7.044;2023-12-22T04:23:59;6.60;99.90
10129;DHT22;5104;50.720;7.044;2023-12-22T04:26:26;6.50;99.90
10129;DHT22;5104;50.720;7.044;2023-12-22T04:28:53;6.50;99.90
10129;DHT22;5104;50.720;7.044;2023-12-22T04:31:20;6.50;99.90
10129;DHT22;5104;50.720;7.044;2023-12-22T04:33:49;6.50;99.90
10129;DHT22;5104;50.720;7.044;2023-12-22T04:36:16;6.40;99.90
10129;DHT22;5104;50.720;7.044;2023-12-22T04:38:44;6.40;99.90
10129;DHT22;5104;50.720;7.044;2023-12-22T04:41:11;6.30;99.90
10129;DHT22;5104;50.720;7.044;2023-12-22T04:43:38;6.30;99.90
10129;DHT22;5104;50.720;7.044;2023-12-22T04:46:05;6.30;99.90
10129;DHT22;5104;50.720;7.044;2023-12-22T04:48:32;6.20;99.90
10129;DHT22;5104;50.720;7.044;2023-12-22T04:50:59;6.30;99.90
10129;DHT22;5104;50.720;7.044;2023-12-22T04:53:26;6.30;99.90
10129;DHT22;5104;50.720;7.044;2023-12-22T04:55:55;6.40;99.90
10129;DHT22;5104;50.720;7.044;2023-12-22T04:58:22;6.40;99.90
10129;DHT22;5104;50.720;7.044;2023-12-22T05:00:49;6.50;99.90
10129;DHT22;5104;50.720;7.044;2023-12-22T05:03:16;6.50;99.90
10129;DHT22;5104;50.720;7.044;2023-12-22T05:05:43;6.50;99.90
10129;DHT22;5104;50.720;7.044;2023-12-22T05:08:10;6.60;99.90
10129;DHT22;5104;50.720;7.044;2023-12-22T05:10:37;6.80;99.90
10129;DHT22;5104;50.720;7.044;2023-12-22T05:13:06;6.90;99.90
10129;DHT22;5104;50.720;7.044;2023-12-22T05:15:32;7.00;99.90
10129;DHT22;5104;50.720;7.044;2023-12-22T05:17:59;7.10;99.90
10129;DHT22;5104;50.720;7.044;2023-12-22T05:20:26;7.20;99.90
10129;DHT22;5104;50.720;7.044;2023-12-22T05:22:53;7.20;99.90
10129;DHT22;5104;50.720;7.044;2023-12-22T05:25:20;7.40;99.90
10129;DHT22;5104;50.720;7.044;2023-12-22T05:27:47;7.40;99.90
10129;DHT22;5104;50.720;7.044;2023-12-22T05:30:16;7.40;99.90
10129;DHT22;5104;50.720;7.044;2023-12-22T05:32:43;7.50;99.90
10129;DHT22;5104;50.720;7.044;2023-12-22T05:35:10;7.50;99.90
10129;DHT22;5104;50.720;7.044;2023-12-22T05:37:37;7.50;99.90
10129;DHT22;5104;50.720;7.044;2023-12-22T05:40:05;7.60;99.90
10129;DHT22;5104;50.720;7.044;2023-12-22T05:42:33;7.70;99.90
10129;DHT22;5104;50.720;7.044;2023-12-22T05:45:00;7.60;99.90
10129;DHT22;5104;50.720;7.044;2023-12-22T05:47:29;7.80;99.90
10129;DHT22;5104;50.720;7.044;2023-12-22T05:49:56;7.80;99.90
10129;DHT22;5104;50.720;7.044;2023-12-22T05:52:22;7.80;99.90
10129;DHT22;5104;50.720;7.044;2023-12-22T05:54:49;7.90;99.90
10129;DHT22;5104;50.720;7.044;2023-12-22T05:57:16;7.80;99.90
10129;DHT22;5104;50.720;7.044;2023-12-22T05:59:43;7.90;1.00
10129;DHT22;5104;50.720;7.044;2023-12-22T06:02:10;7.90;1.00
10129;DHT22;5104;50.720;7.044;2023-12-22T06:04:40;8.00;18.90
10129;DHT22;5104;50.720;7.044;2023-12-22T06:07:07;8.00;1.00
10129;DHT22;5104;50.720;7.044;2023-12-22T06:09:34;8.00;1.00
10129;DHT22;5104;50.720;7.044;2023-12-22T06:12:01;8.00;1.00
10129;DHT22;5104;50.720;7.044;2023-12-22T06:14:28;8.00;1.00
10129;DHT22;5104;50.720;7.044;2023-12-22T06:16:55;8.00;1.00
10129;DHT22;5104;50.720;7.044;2023-12-22T06:19:25;8.10;1.00
10129;DHT22;5104;50.720;7.044;2023-12-22T06:21:55;8.10;1.00
10129;DHT22;5104;50.720;7.044;2023-12-22T06:24:22;8.10;99.90
10129;DHT22;5104;50.720;7.044;2023-12-22T06:26:49;8.10;99.90
10129;DHT22;5104;50.720;7.044;2023-12-22T06:29:16;8.10;1.00
10129;DHT22;5104;50.720;7.044;2023-12-22T06:31:43;8.10;1.00
10129;DHT22;5104;50.720;7.044;2023-12-22T06:34:13;8.10;99.90
10129;DHT22;5104;50.720;7.044;2023-12-22T06:36:40;8.00;1.00
10129;DHT22;5104;50.720;7.044;2023-12-22T06:39:09;8.00;1.00
10129;DHT22;5104;50.720;7.044;2023-12-22T06:41:37;8.00;1.00
10129;DHT22;5104;50.720;7.044;2023-12-22T06:44:04;8.00;99.90
10129;DHT22;5104;50.720;7.044;2023-12-22T06:46:31;7.90;99.90
10129;DHT22;5104;50.720;7.044;2023-12-22T06:48:59;7.90;99.90
10129;DHT22;5104;50.720;7.044;2023-12-22T06:51:28;8.00;1.00
10129;DHT22;5104;50.720;7.044;2023-12-22T06:53:56;8.00;8.60
10129;DHT22;5104;50.720;7.044;2023-12-22T06:56:28;8.00;99.90
10129;DHT22;5104;50.720;7.044;2023-12-22T06:58:56;7.90;1.00
10129;DHT22;5104;50.720;7.044;2023-12-22T07:01:26;8.00;1.00
10129;DHT22;5104;50.720;7.044;2023-12-22T07:03:53;7.90;99.90
10129;DHT22;5104;50.720;7.044;2023-12-22T07:06:21;7.80;99.40
10129;DHT22;5104;50.720;7.044;2023-12-22T07:11:45;7.40;1.00
10129;DHT22;5104;50.720;7.044;2023-12-22T07:14:13;7.20;1.00
10129;DHT22;5104;50.720;7.044;2023-12-22T07:16:42;7.10;1.00
10129;DHT22;5104;50.720;7.044;2023-12-22T07:19:09;7.00;1.00
10129;DHT22;5104;50.720;7.044;2023-12-22T07:21:38;6.90;99.90
10129;DHT22;5104;50.720;7.044;2023-12-22T07:24:06;6.90;99.90
10129;DHT22;5104;50.720;7.044;2023-12-22T07:26:33;6.80;99.90
10129;DHT22;5104;50.720;7.044;2023-12-22T07:29:02;6.80;99.90
10129;DHT22;5104;50.720;7.044;2023-12-22T07:31:28;6.70;99.90
10129;DHT22;5104;50.720;7.044;2023-12-22T07:33:55;6.80;99.90
10129;DHT22;5104;50.720;7.044;2023-12-22T07:36:22;6.70;99.90
10129;DHT22;5104;50.720;7.044;2023-12-22T07:38:49;6.70;99.90
10129;DHT22;5104;50.720;7.044;2023-12-22T07:41:17;6.70;99.90
10129;DHT22;5104;50.720;7.044;2023-12-22T07:43:44;6.80;99.90
10129;DHT22;5104;50.720;7.044;2023-12-22T07:46:18;6.90;99.90
10129;DHT22;5104;50.720;7.044;2023-12-22T07:48:45;7.00;99.90
10129;DHT22;5104;50.720;7.044;2023-12-22T07:51:12;7.00;99.90
10129;DHT22;5104;50.720;7.044;2023-12-22T07:53:39;7.00;99.90
10129;DHT22;5104;50.720;7.044;2023-12-22T07:56:06;7.00;99.90
10129;DHT22;5104;50.720;7.044;2023-12-22T07:58:33;7.00;99.90
10129;DHT22;5104;50.720;7.044;2023-12-22T08:01:00;7.00;99.90
10129;DHT22;5104;50.720;7.044;2023-12-22T08:03:30;7.10;99.90
10129;DHT22;5104;50.720;7.044;2023-12-22T08:05:57;7.10;99.90
10129;DHT22;5104;50.720;7.044;2023-12-22T08:08:24;7.30;99.90
10129;DHT22;5104;50.720;7.044;2023-12-22T08:10:52;7.40;99.90
10129;DHT22;5104;50.720;7.044;2023-12-22T08:13:19;7.60;1.00
10129;DHT22;5104;50.720;7.044;2023-12-22T08:15:46;7.60;94.00
10129;DHT22;5104;50.720;7.044;2023-12-22T08:18:13;7.70;99.90
10129;DHT22;5104;50.720;7.044;2023-12-22T08:20:41;7.70;99.90
10129;DHT22;5104;50.720;7.044;2023-12-22T08:23:08;7.80;1.00
10129;DHT22;5104;50.720;7.044;2023-12-22T08:25:37;7.80;1.00
10129;DHT22;5104;50.720;7.044;2023-12-22T08:28:06;7.90;99.90
10129;DHT22;5104;50.720;7.044;2023-12-22T08:30:35;7.90;1.00
10129;DHT22;5104;50.720;7.044;2023-12-22T08:33:03;7.90;1.00
10129;DHT22;5104;50.720;7.044;2023-12-22T08:35:30;7.90;1.00
10129;DHT22;5104;50.720;7.044;2023-12-22T08:37:58;8.00;1.00
10129;DHT22;5104;50.720;7.044;2023-12-22T08:40:25;8.10;99.90
10129;DHT22;5104;50.720;7.044;2023-12-22T08:42:52;8.20;99.90
10129;DHT22;5104;50.720;7.044;2023-12-22T08:45:25;8.20;99.90
10129;DHT22;5104;50.720;7.044;2023-12-22T08:47:54;8.20;99.90
10129;DHT22;5104;50.720;7.044;2023-12-22T08:50:21;8.30;99.90
10129;DHT22;5104;50.720;7.044;2023-12-22T08:52:48;8.40;1.00
10129;DHT22;5104;50.720;7.044;2023-12-22T08:55:16;8.40;1.00
10129;DHT22;5104;50.720;7.044;2023-12-22T08:57:44;8.40;99.90
10129;DHT22;5104;50.720;7.044;2023-12-22T09:00:12;8.40;99.90
10129;DHT22;5104;50.720;7.044;2023-12-22T09:02:40;8.40;99.20
10129;DHT22;5104;50.720;7.044;2023-12-22T09:05:07;8.40;99.90
10129;DHT22;5104;50.720;7.044;2023-12-22T09:07:34;8.40;1.00
10129;DHT22;5104;50.720;7.044;2023-12-22T09:10:01;8.50;99.90
10129;DHT22;5104;50.720;7.044;2023-12-22T09:12:33;8.50;99.90
10129;DHT22;5104;50.720;7.044;2023-12-22T09:15:00;8.50;99.90
10129;DHT22;5104;50.720;7.044;2023-12-22T09:17:29;8.60;99.90
10129;DHT22;5104;50.720;7.044;2023-12-22T09:19:58;8.60;99.90
10129;DHT22;5104;50.720;7.044;2023-12-22T09:22:25;8.70;1.00
10129;DHT22;5104;50.720;7.044;2023-12-22T09:24:52;8.70;1.00
10129;DHT22;5104;50.720;7.044;2023-12-22T09:27:19;8.70;99.90
10129;DHT22;5104;50.720;7.044;2023-12-22T09:29:48;8.70;1.00
10129;DHT22;5104;50.720;7.044;2023-12-22T09:32:15;8.80;1.00
10129;DHT22;5104;50.720;7.044;2023-12-22T09:34:42;8.80;1.00
10129;DHT22;5104;50.720;7.044;2023-12-22T09:37:09;8.80;1.00
10129;DHT22;5104;50.720;7.044;2023-12-22T09:39:36;8.80;1.00
10129;DHT22;5104;50.720;7.044;2023-12-22T09:42:03;8.90;1.00
10129;DHT22;5104;50.720;7.044;2023-12-22T09:44:32;8.90;1.00
10129;DHT22;5104;50.720;7.044;2023-12-22T09:47:03;8.90;1.00
10129;DHT22;5104;50.720;7.044;2023-12-22T09:49:32;8.90;1.00
10129;DHT22;5104;50.720;7.044;2023-12-22T09:52:00;8.90;1.00
10129;DHT22;5104;50.720;7.044;2023-12-22T09:54:29;9.00;99.90
10129;DHT22;5104;50.720;7.044;2023-12-22T09:56:57;9.00;1.00
10129;DHT22;5104;50.720;7.044;2023-12-22T09:59:25;9.00;1.00
10129;DHT22;5104;50.720;7.044;2023-12-22T10:01:55;9.00;1.00
10129;DHT22;5104;50.720;7.044;2023-12-22T10:04:23;9.00;1.00
10129;DHT22;5104;50.720;7.044;2023-12-22T10:06:51;9.10;1.00
10129;DHT22;5104;50.720;7.044;2023-12-22T10:09:19;9.10;1.00
10129;DHT22;5104;50.720;7.044;2023-12-22T10:11:49;9.10;1.00
10129;DHT22;5104;50.720;7.044;2023-12-22T10:14:19;9.10;1.00
10129;DHT22;5104;50.720;7.044;2023-12-22T10:16:48;9.10;99.90
10129;DHT22;5104;50.720;7.044;2023-12-22T10:19:19;9.10;99.90
10129;DHT22;5104;50.720;7.044;2023-12-22T10:21:48;9.10;99.90
10129;DHT22;5104;50.720;7.044;2023-12-22T10:27:17;9.10;99.90
10129;DHT22;5104;50.720;7.044;2023-12-22T10:29:50;9.10;1.00
10129;DHT22;5104;50.720;7.044;2023-12-22T10:32:17;9.20;99.90
10129;DHT22;5104;50.720;7.044;2023-12-22T10:34:44;9.20;1.00
10129;DHT22;5104;50.720;7.044;2023-12-22T10:37:12;9.20;13.80
10129;DHT22;5104;50.720;7.044;2023-12-22T10:39:40;9.20;1.00
10129;DHT22;5104;50.720;7.044;2023-12-22T10:42:10;9.10;99.90
10129;DHT22;5104;50.720;7.044;2023-12-22T10:44:40;9.10;99.90
10129;DHT22;5104;50.720;7.044;2023-12-22T10:47:07;9.10;1.00
10129;DHT22;5104;50.720;7.044;2023-12-22T10:49:34;9.00;99.90
10129;DHT22;5104;50.720;7.044;2023-12-22T10:52:03;9.00;1.00
10129;DHT22;5104;50.720;7.044;2023-12-22T10:54:31;9.00;99.90
10129;DHT22;5104;50.720;7.044;2023-12-22T10:56:59;8.90;1.00
10129;DHT22;5104;50.720;7.044;2023-12-22T10:59:29;8.90;1.00
10129;DHT22;5104;50.720;7.044;2023-12-22T11:01:57;8.90;99.90
10129;DHT22;5104;50.720;7.044;2023-12-22T11:04:30;8.90;99.90
10129;DHT22;5104;50.720;7.044;2023-12-22T11:06:58;8.80;1.00
10129;DHT22;5104;50.720;7.044;2023-12-22T11:09:26;8.80;1.00
10129;DHT22;5104;50.720;7.044;2023-12-22T11:12:01;8.80;99.90
10129;DHT22;5104;50.720;7.044;2023-12-22T11:14:29;8.80;99.90
10129;DHT22;5104;50.720;7.044;2023-12-22T11:17:00;8.80;99.90
10129;DHT22;5104;50.720;7.044;2023-12-22T11:19:27;8.80;99.90
10129;DHT22;5104;50.720;7.044;2023-12-22T11:21:56;8.90;99.90
10129;DHT22;5104;50.720;7.044;2023-12-22T11:24:25;8.90;99.90
10129;DHT22;5104;50.720;7.044;2023-12-22T11:26:56;9.00;99.90
10129;DHT22;5104;50.720;7.044;2023-12-22T11:29:26;9.00;99.90
10129;DHT22;5104;50.720;7.044;2023-12-22T11:31:55;9.10;99.90
10129;DHT22;5104;50.720;7.044;2023-12-22T11:34:24;9.20;99.90
10129;DHT22;5104;50.720;7.044;2023-12-22T11:36:53;9.30;91.40
10129;DHT22;5104;50.720;7.044;2023-12-22T11:39:21;9.30;1.00
10129;DHT22;5104;50.720;7.044;2023-12-22T11:41:49;9.40;99.90
10129;DHT22;5104;50.720;7.044;2023-12-22T11:44:17;9.50;1.00
10129;DHT22;5104;50.720;7.044;2023-12-22T11:46:45;9.60;99.90
10129;DHT22;5104;50.720;7.044;2023-12-22T11:49:13;9.60;99.90
10129;DHT22;5104;50.720;7.044;2023-12-22T11:51:40;9.60;1.00
10129;DHT22;5104;50.720;7.044;2023-12-22T11:57:29;9.80;99.90
10129;DHT22;5104;50.720;7.044;2023-12-22T11:59:57;9.80;99.90
10129;DHT22;5104;50.720;7.044;2023-12-22T12:02:26;9.80;99.90
10129;DHT22;5104;50.720;7.044;2023-12-22T12:04:54;9.90;1.00
10129;DHT22;5104;50.720;7.044;2023-12-22T12:07:40;10.00;1.00
10129;DHT22;5104;50.720;7.044;2023-12-22T12:10:10;10.10;99.90
10129;DHT22;5104;50.720;7.044;2023-12-22T12:12:37;10.20;99.90
10129;DHT22;5104;50.720;7.044;2023-12-22T12:15:09;10.20;99.90
10129;DHT22;5104;50.720;7.044;2023-12-22T12:17:41;10.30;1.00
10129;DHT22;5104;50.720;7.044;2023-12-22T12:20:09;10.30;1.00
10129;DHT22;5104;50.720;7.044;2023-12-22T12:22:37;10.30;1.00
10129;DHT22;5104;50.720;7.044;2023-12-22T12:25:08;10.40;1.00
10129;DHT22;5104;50.720;7.044;2023-12-22T12:27:37;10.40;99.90
10129;DHT22;5104;50.720;7.044;2023-12-22T12:30:09;10.40;1.00
10129;DHT22;5104;50.720;7.044;2023-12-22T12:32:37;10.50;1.00
10129;DHT22;5104;50.720;7.044;2023-12-22T12:35:06;10.50;1.00
10129;DHT22;5104;50.720;7.044;2023-12-22T12:37:33;10.50;1.00
10129;DHT22;5104;50.720;7.044;2023-12-22T12:40:02;10.50;99.90
10129;DHT22;5104;50.720;7.044;2023-12-22T12:42:31;10.60;99.90
10129;DHT22;5104;50.720;7.044;2023-12-22T12:44:58;10.60;1.00
10129;DHT22;5104;50.720;7.044;2023-12-22T12:47:26;10.50;1.00
10129;DHT22;5104;50.720;7.044;2023-12-22T12:49:59;10.50;1.00
10129;DHT22;5104;50.720;7.044;2023-12-22T12:52:28;10.50;1.00
10129;DHT22;5104;50.720;7.044;2023-12-22T12:54:55;10.50;1.00
10129;DHT22;5104;50.720;7.044;2023-12-22T12:57:24;10.50;1.00
10129;DHT22;5104;50.720;7.044;2023-12-22T12:59:51;10.60;1.00
10129;DHT22;5104;50.720;7.044;2023-12-22T13:02:18;10.60;1.00
10129;DHT22;5104;50.720;7.044;2023-12-22T13:04:46;10.60;99.90
10129;DHT22;5104;50.720;7.044;2023-12-22T13:07:13;10.60;99.90
10129;DHT22;5104;50.720;7.044;2023-12-22T13:09:41;10.60;1.00
10129;DHT22;5104;50.720;7.044;2023-12-22T13:12:09;10.50;1.00
10129;DHT22;5104;50.720;7.044;2023-12-22T13:14:36;10.30;99.90
10129;DHT22;5104;50.720;7.044;2023-12-22T13:17:03;10.20;99.90
10129;DHT22;5104;50.720;7.044;2023-12-22T13:19:32;10.00;99.90
10129;DHT22;5104;50.720;7.044;2023-12-22T13:21:59;9.90;1.00
10129;DHT22;5104;50.720;7.044;2023-12-22T13:24:26;9.80;1.00
10129;DHT22;5104;50.720;7.044;2023-12-22T13:27:01;9.80;1.00
10129;DHT22;5104;50.720;7.044;2023-12-22T13:29:29;9.80;1.00
10129;DHT22;5104;50.720;7.044;2023-12-22T13:31:56;9.90;1.00
10129;DHT22;5104;50.720;7.044;2023-12-22T13:34:24;9.90;93.70
10129;DHT22;5104;50.720;7.044;2023-12-22T13:36:51;10.00;1.00
10129;DHT22;5104;50.720;7.044;2023-12-22T13:39:18;10.10;99.90
10129;DHT22;5104;50.720;7.044;2023-12-22T13:41:45;10.10;36.10
10129;DHT22;5104;50.720;7.044;2023-12-22T13:44:15;10.10;1.00
10129;DHT22;5104;50.720;7.044;2023-12-22T13:46:42;10.10;1.00
10129;DHT22;5104;50.720;7.044;2023-12-22T13:49:11;10.20;99.90
10129;DHT22;5104;50.720;7.044;2023-12-22T13:51:42;10.20;1.00
10129;DHT22;5104;50.720;7.044;2023-12-22T13:54:10;10.20;1.00
10129;DHT22;5104;50.720;7.044;2023-12-22T13:56:40;10.20;99.90
10129;DHT22;5104;50.720;7.044;2023-12-22T13:59:07;10.30;1.00
10129;DHT22;5104;50.720;7.044;2023-12-22T14:01:36;10.30;99.90
10129;DHT22;5104;50.720;7.044;2023-12-22T14:04:04;10.30;99.90
10129;DHT22;5104;50.720;7.044;2023-12-22T14:06:31;10.30;99.90
10129;DHT22;5104;50.720;7.044;2023-12-22T14:08:58;10.30;99.90
10129;DHT22;5104;50.720;7.044;2023-12-22T14:11:26;10.30;1.00
10129;DHT22;5104;50.720;7.044;2023-12-22T14:13:53;10.30;1.00
10129;DHT22;5104;50.720;7.044;2023-12-22T14:16:23;10.40;1.00
10129;DHT22;5104;50.720;7.044;2023-12-22T14:18:52;10.40;1.00
10129;DHT22;5104;50.720;7.044;2023-12-22T14:21:20;10.40;1.00
10129;DHT22;5104;50.720;7.044;2023-12-22T14:23:47;10.40;1.00
10129;DHT22;5104;50.720;7.044;2023-12-22T14:26:14;10.40;1.00
10129;DHT22;5104;50.720;7.044;2023-12-22T14:28:42;10.40;1.00
10129;DHT22;5104;50.720;7.044;2023-12-22T14:31:12;10.40;1.00
10129;DHT22;5104;50.720;7.044;2023-12-22T14:33:39;10.50;99.90
10129;DHT22;5104;50.720;7.044;2023-12-22T14:36:08;10.40;1.00
10129;DHT22;5104;50.720;7.044;2023-12-22T14:38:34;10.40;1.00
10129;DHT22;5104;50.720;7.044;2023-12-22T14:41:01;10.40;1.00
10129;DHT22;5104;50.720;7.044;2023-12-22T14:43:28;10.40;1.00
10129;DHT22;5104;50.720;7.044;2023-12-22T14:45:55;10.40;1.00
10129;DHT22;5104;50.720;7.044;2023-12-22T14:48:22;10.40;99.90
10129;DHT22;5104;50.720;7.044;2023-12-22T14:50:49;10.40;99.90
10129;DHT22;5104;50.720;7.044;2023-12-22T14:53:21;10.40;99.90
10129;DHT22;5104;50.720;7.044;2023-12-22T14:55:48;10.30;1.00
10129;DHT22;5104;50.720;7.044;2023-12-22T14:58:15;10.40;1.00
10129;DHT22;5104;50.720;7.044;2023-12-22T15:00:42;10.30;1.00
10129;DHT22;5104;50.720;7.044;2023-12-22T15:03:09;10.30;18.70
10129;DHT22;5104;50.720;7.044;2023-12-22T15:05:36;10.20;99.90
10129;DHT22;5104;50.720;7.044;2023-12-22T15:08:04;10.20;1.00
10129;DHT22;5104;50.720;7.044;2023-12-22T15:10:34;10.10;1.00
10129;DHT22;5104;50.720;7.044;2023-12-22T15:13:02;10.10;99.90
10129;DHT22;5104;50.720;7.044;2023-12-22T15:15:30;10.00;1.00
10129;DHT22;5104;50.720;7.044;2023-12-22T15:17:57;10.00;1.00
10129;DHT22;5104;50.720;7.044;2023-12-22T15:20:24;9.80;1.00
10129;DHT22;5104;50.720;7.044;2023-12-22T15:22:51;9.70;48.20
10129;DHT22;5104;50.720;7.044;2023-12-22T15:25:18;9.60;99.90
10129;DHT22;5104;50.720;7.044;2023-12-22T15:27:48;9.60;1.00
10129;DHT22;5104;50.720;7.044;2023-12-22T15:30:15;9.50;99.90
10129;DHT22;5104;50.720;7.044;2023-12-22T15:32:42;9.50;99.90
10129;DHT22;5104;50.720;7.044;2023-12-22T15:35:09;9.50;99.90
10129;DHT22;5104;50.720;7.044;2023-12-22T15:37:37;9.50;99.90
10129;DHT22;5104;50.720;7.044;2023-12-22T15:40:07;9.50;99.90
10129;DHT22;5104;50.720;7.044;2023-12-22T15:42:38;9.50;99.90
10129;DHT22;5104;50.720;7.044;2023-12-22T15:45:08;9.50;99.90
10129;DHT22;5104;50.720;7.044;2023-12-22T15:47:37;9.50;99.90
10129;DHT22;5104;50.720;7.044;2023-12-22T15:50:07;9.50;99.90
10129;DHT22;5104;50.720;7.044;2023-12-22T15:52:35;9.50;99.90
10129;DHT22;5104;50.720;7.044;2023-12-22T15:55:02;9.50;99.90
10129;DHT22;5104;50.720;7.044;2023-12-22T15:57:29;9.50;92.20
10129;DHT22;5104;50.720;7.044;2023-12-22T15:59:56;9.50;1.00
10129;DHT22;5104;50.720;7.044;2023-12-22T16:02:24;9.60;99.90
10129;DHT22;5104;50.720;7.044;2023-12-22T16:04:51;9.50;20.20
10129;DHT22;5104;50.720;7.044;2023-12-22T16:07:20;9.60;1.00
10129;DHT22;5104;50.720;7.044;2023-12-22T16:09:49;9.60;99.90
10129;DHT22;5104;50.720;7.044;2023-12-22T16:12:19;9.60;99.90
10129;DHT22;5104;50.720;7.044;2023-12-22T16:14:49;9.60;1.00
10129;DHT22;5104;50.720;7.044;2023-12-22T16:17:19;9.60;99.90